sensor_id;sensor_type;location;lat;lon;timestamp;pressure;altitude;pressure_sealevel;temperature;humidity
59168;BME280;44948;55.046;73.266;2023-03-26T00:01:10;99773.31;;;2.08;81.10
59168;BME280;44948;55.046;73.266;2023-03-26T00:04:16;99766.38;;;2.09;81.36
59168;BME280;44948;55.046;73.266;2023-03-26T00:07:25;99764.84;;;2.05;81.07
59168;BME280;44948;55.046;73.266;2023-03-26T00:10:40;99766.66;;;2.03;81.44
59168;BME280;44948;55.046;73.266;2023-03-26T00:13:53;99761.72;;;1.96;81.41
59168;BME280;44948;55.046;73.266;2023-03-26T00:16:57;99764.25;;;1.98;80.99
59168;BME280;44948;55.046;73.266;2023-03-26T00:20:02;99767.75;;;1.97;81.38
59168;BME280;44948;55.046;73.266;2023-03-26T00:23:10;99777.38;;;1.93;81.36
59168;BME280;44948;55.046;73.266;2023-03-26T00:26:12;99773.41;;;1.86;81.41
59168;BME280;44948;55.046;73.266;2023-03-26T00:29:15;99780.25;;;1.87;81.45
59168;BME280;44948;55.046;73.266;2023-03-26T00:32:27;99772.72;;;1.81;81.34
59168;BME280;44948;55.046;73.266;2023-03-26T00:35:31;99775.97;;;1.86;81.49
59168;BME280;44948;55.046;73.266;2023-03-26T00:38:37;99783.28;;;1.77;81.37
59168;BME280;44948;55.046;73.266;2023-03-26T00:41:40;99788.53;;;1.75;81.93
59168;BME280;44948;55.046;73.266;2023-03-26T00:44:43;99777.19;;;1.78;81.80
59168;BME280;44948;55.046;73.266;2023-03-26T00:47:46;99766.66;;;1.82;81.45
59168;BME280;44948;55.046;73.266;2023-03-26T00:50:58;99776.38;;;1.77;81.66
59168;BME280;44948;55.046;73.266;2023-03-26T00:54:01;99783.22;;;1.78;81.57
59168;BME280;44948;55.046;73.266;2023-03-26T00:57:04;99770.28;;;1.78;81.79
59168;BME280;44948;55.046;73.266;2023-03-26T01:00:13;99783.56;;;1.70;81.86
59168;BME280;44948;55.046;73.266;2023-03-26T01:03:17;99774.97;;;1.70;81.59
59168;BME280;44948;55.046;73.266;2023-03-26T01:06:25;99776.63;;;1.71;81.70
59168;BME280;44948;55.046;73.266;2023-03-26T01:09:33;99777.00;;;1.62;81.64
59168;BME280;44948;55.046;73.266;2023-03-26T01:12:36;99770.94;;;1.63;81.39
59168;BME280;44948;55.046;73.266;2023-03-26T01:15:39;99759.06;;;1.59;81.25
59168;BME280;44948;55.046;73.266;2023-03-26T01:18:52;99765.69;;;1.64;81.48
59168;BME280;44948;55.046;73.266;2023-03-26T01:21:57;99780.38;;;1.64;81.97
59168;BME280;44948;55.046;73.266;2023-03-26T01:24:59;99767.38;;;1.65;81.77
59168;BME280;44948;55.046;73.266;2023-03-26T01:28:04;99762.53;;;1.78;81.79
59168;BME280;44948;55.046;73.266;2023-03-26T01:31:36;99766.66;;;1.82;81.53
59168;BME280;44948;55.046;73.266;2023-03-26T01:41:23;99749.91;;;1.91;81.54
59168;BME280;44948;55.046;73.266;2023-03-26T01:44:36;99751.53;;;1.93;81.59
59168;BME280;44948;55.046;73.266;2023-03-26T01:47:41;99747.91;;;1.97;81.21
59168;BME280;44948;55.046;73.266;2023-03-26T01:50:44;99761.34;;;2.06;81.27
59168;BME280;44948;55.046;73.266;2023-03-26T01:53:47;99766.09;;;2.15;80.72
59168;BME280;44948;55.046;73.266;2023-03-26T02:00:27;99744.16;;;2.23;80.26
59168;BME280;44948;55.046;73.266;2023-03-26T02:03:37;99750.81;;;2.48;80.48
59168;BME280;44948;55.046;73.266;2023-03-26T02:06:52;99739.53;;;2.68;80.25
59168;BME280;44948;55.046;73.266;2023-03-26T02:10:36;99743.72;;;2.89;79.08
59168;BME280;44948;55.046;73.266;2023-03-26T02:13:39;99737.94;;;3.18;79.19
59168;BME280;44948;55.046;73.266;2023-03-26T02:16:42;99742.00;;;3.24;78.34
59168;BME280;44948;55.046;73.266;2023-03-26T02:19:57;99751.38;;;3.44;78.46
59168;BME280;44948;55.046;73.266;2023-03-26T02:22:59;99735.97;;;3.75;77.79
59168;BME280;44948;55.046;73.266;2023-03-26T02:26:08;99740.72;;;4.00;76.83
59168;BME280;44948;55.046;73.266;2023-03-26T02:29:22;99732.94;;;4.16;76.28
59168;BME280;44948;55.046;73.266;2023-03-26T02:32:25;99739.69;;;4.52;75.69
59168;BME280;44948;55.046;73.266;2023-03-26T02:35:27;99742.81;;;4.74;75.74
59168;BME280;44948;55.046;73.266;2023-03-26T02:38:39;99740.28;;;4.88;74.64
59168;BME280;44948;55.046;73.266;2023-03-26T02:41:52;99735.00;;;5.06;74.16
59168;BME280;44948;55.046;73.266;2023-03-26T02:44:54;99744.38;;;5.24;73.50
59168;BME280;44948;55.046;73.266;2023-03-26T02:48:17;99741.44;;;5.44;72.61
59168;BME280;44948;55.046;73.266;2023-03-26T02:51:26;99742.84;;;5.50;72.36
59168;BME280;44948;55.046;73.266;2023-03-26T02:54:36;99747.63;;;5.72;71.26
59168;BME280;44948;55.046;73.266;2023-03-26T02:57:54;99745.41;;;5.80;70.66
59168;BME280;44948;55.046;73.266;2023-03-26T03:01:08;99753.59;;;5.88;70.59
59168;BME280;44948;55.046;73.266;2023-03-26T03:04:19;99752.31;;;5.95;69.67
59168;BME280;44948;55.046;73.266;2023-03-26T03:07:23;99754.44;;;6.03;69.75
59168;BME280;44948;55.046;73.266;2023-03-26T03:10:26;99751.75;;;6.18;69.37
59168;BME280;44948;55.046;73.266;2023-03-26T03:13:54;99755.28;;;6.32;68.84
59168;BME280;44948;55.046;73.266;2023-03-26T03:17:00;99748.59;;;5.99;68.53
59168;BME280;44948;55.046;73.266;2023-03-26T03:20:03;99740.59;;;6.31;68.18
59168;BME280;44948;55.046;73.266;2023-03-26T03:23:18;99756.56;;;6.39;67.33
59168;BME280;44948;55.046;73.266;2023-03-26T03:26:27;99755.66;;;6.40;67.84
59168;BME280;44948;55.046;73.266;2023-03-26T03:29:41;99763.81;;;6.62;67.45
59168;BME280;44948;55.046;73.266;2023-03-26T03:33:15;99744.47;;;6.52;66.86
59168;BME280;44948;55.046;73.266;2023-03-26T03:36:21;99746.31;;;6.64;66.79
59168;BME280;44948;55.046;73.266;2023-03-26T03:39:33;99762.97;;;6.76;66.26
59168;BME280;44948;55.046;73.266;2023-03-26T03:42:36;99753.41;;;6.89;66.04
59168;BME280;44948;55.046;73.266;2023-03-26T03:45:40;99754.09;;;7.05;65.54
59168;BME280;44948;55.046;73.266;2023-03-26T03:48:50;99755.34;;;7.00;65.16
59168;BME280;44948;55.046;73.266;2023-03-26T03:51:57;99759.78;;;7.12;64.77
59168;BME280;44948;55.046;73.266;2023-03-26T03:55:05;99752.09;;;7.23;64.73
59168;BME280;44948;55.046;73.266;2023-03-26T03:58:23;99764.84;;;7.28;64.35
59168;BME280;44948;55.046;73.266;2023-03-26T04:01:28;99753.34;;;7.30;63.62
59168;BME280;44948;55.046;73.266;2023-03-26T04:04:36;99779.69;;;7.13;63.84
59168;BME280;44948;55.046;73.266;2023-03-26T04:07:40;99769.00;;;7.03;63.74
59168;BME280;44948;55.046;73.266;2023-03-26T04:11:02;99771.38;;;6.94;63.52
59168;BME280;44948;55.046;73.266;2023-03-26T04:14:07;99773.81;;;6.82;64.16
59168;BME280;44948;55.046;73.266;2023-03-26T04:17:29;99773.25;;;6.92;64.23
59168;BME280;44948;55.046;73.266;2023-03-26T04:20:31;99759.91;;;7.23;63.85
59168;BME280;44948;55.046;73.266;2023-03-26T04:23:36;99760.81;;;7.36;63.32
59168;BME280;44948;55.046;73.266;2023-03-26T04:26:49;99763.25;;;7.65;62.57
59168;BME280;44948;55.046;73.266;2023-03-26T04:30:06;99762.31;;;7.66;63.00
59168;BME280;44948;55.046;73.266;2023-03-26T04:33:11;99769.94;;;7.69;61.66
59168;BME280;44948;55.046;73.266;2023-03-26T04:36:18;99758.88;;;7.65;61.78
59168;BME280;44948;55.046;73.266;2023-03-26T04:39:30;99755.03;;;7.96;61.65
59168;BME280;44948;55.046;73.266;2023-03-26T04:42:53;99749.91;;;8.20;60.82
59168;BME280;44948;55.046;73.266;2023-03-26T04:46:19;99755.56;;;8.27;60.11
59168;BME280;44948;55.046;73.266;2023-03-26T04:49:35;99759.53;;;8.07;60.15
59168;BME280;44948;55.046;73.266;2023-03-26T04:52:37;99761.84;;;8.12;60.29
59168;BME280;44948;55.046;73.266;2023-03-26T04:56:31;99769.56;;;8.00;60.64
59168;BME280;44948;55.046;73.266;2023-03-26T04:59:50;99781.25;;;8.33;60.21
59168;BME280;44948;55.046;73.266;2023-03-26T05:02:53;99779.69;;;8.30;60.02
59168;BME280;44948;55.046;73.266;2023-03-26T05:05:59;99761.19;;;8.21;59.71
59168;BME280;44948;55.046;73.266;2023-03-26T05:09:03;99767.81;;;8.63;58.87
59168;BME280;44948;55.046;73.266;2023-03-26T05:12:32;99763.78;;;8.83;58.44
59168;BME280;44948;55.046;73.266;2023-03-26T05:15:42;99758.38;;;8.73;58.08
59168;BME280;44948;55.046;73.266;2023-03-26T05:18:53;99760.13;;;8.73;57.32
59168;BME280;44948;55.046;73.266;2023-03-26T05:21:57;99759.75;;;8.66;57.80
59168;BME280;44948;55.046;73.266;2023-03-26T05:25:00;99763.13;;;8.55;57.43
59168;BME280;44948;55.046;73.266;2023-03-26T05:28:04;99759.16;;;8.50;57.44
59168;BME280;44948;55.046;73.266;2023-03-26T05:31:32;99763.53;;;8.62;58.01
59168;BME280;44948;55.046;73.266;2023-03-26T05:34:40;99762.94;;;8.58;57.33
59168;BME280;44948;55.046;73.266;2023-03-26T05:37:44;99767.00;;;8.62;57.60
59168;BME280;44948;55.046;73.266;2023-03-26T05:41:02;99760.00;;;8.87;56.38
59168;BME280;44948;55.046;73.266;2023-03-26T05:44:15;99742.75;;;8.48;56.62
59168;BME280;44948;55.046;73.266;2023-03-26T05:47:17;99769.75;;;8.72;56.97
59168;BME280;44948;55.046;73.266;2023-03-26T05:50:20;99757.59;;;8.47;57.08
59168;BME280;44948;55.046;73.266;2023-03-26T05:53:28;99755.59;;;8.63;56.87
59168;BME280;44948;55.046;73.266;2023-03-26T05:56:49;99755.50;;;8.40;56.31
59168;BME280;44948;55.046;73.266;2023-03-26T06:00:10;99769.28;;;8.54;56.97
59168;BME280;44948;55.046;73.266;2023-03-26T06:03:18;99754.28;;;8.20;57.41
59168;BME280;44948;55.046;73.266;2023-03-26T06:06:46;99752.84;;;7.90;57.81
59168;BME280;44948;55.046;73.266;2023-03-26T06:09:55;99753.44;;;8.45;57.58
59168;BME280;44948;55.046;73.266;2023-03-26T06:12:59;99750.47;;;8.86;55.99
59168;BME280;44948;55.046;73.266;2023-03-26T06:16:01;99751.16;;;9.01;55.59
59168;BME280;44948;55.046;73.266;2023-03-26T06:19:10;99744.44;;;9.09;55.54
59168;BME280;44948;55.046;73.266;2023-03-26T06:22:30;99727.69;;;9.12;55.51
59168;BME280;44948;55.046;73.266;2023-03-26T06:25:58;99732.25;;;9.45;55.26
59168;BME280;44948;55.046;73.266;2023-03-26T06:29:19;99734.56;;;9.26;54.95
59168;BME280;44948;55.046;73.266;2023-03-26T06:32:51;99734.22;;;9.17;55.79
59168;BME280;44948;55.046;73.266;2023-03-26T06:35:59;99725.22;;;9.57;55.10
59168;BME280;44948;55.046;73.266;2023-03-26T06:39:02;99722.28;;;9.61;54.60
59168;BME280;44948;55.046;73.266;2023-03-26T06:42:04;99713.31;;;9.41;54.62
59168;BME280;44948;55.046;73.266;2023-03-26T06:45:17;99727.25;;;8.94;55.30
59168;BME280;44948;55.046;73.266;2023-03-26T06:48:39;99727.78;;;9.34;55.31
59168;BME280;44948;55.046;73.266;2023-03-26T06:52:05;99732.72;;;9.50;54.97
59168;BME280;44948;55.046;73.266;2023-03-26T06:55:43;99730.63;;;9.66;54.99
59168;BME280;44948;55.046;73.266;2023-03-26T06:59:04;99731.06;;;9.49;54.67
59168;BME280;44948;55.046;73.266;2023-03-26T07:02:25;99719.94;;;9.34;55.21
59168;BME280;44948;55.046;73.266;2023-03-26T07:05:46;99721.06;;;9.43;55.04
59168;BME280;44948;55.046;73.266;2023-03-26T07:09:07;99722.00;;;9.42;55.23
59168;BME280;44948;55.046;73.266;2023-03-26T07:12:37;99716.03;;;9.40;55.42
59168;BME280;44948;55.046;73.266;2023-03-26T07:16:03;99724.56;;;9.31;55.08
59168;BME280;44948;55.046;73.266;2023-03-26T07:19:25;99720.53;;;9.27;55.12
59168;BME280;44948;55.046;73.266;2023-03-26T07:22:28;99721.50;;;9.37;55.47
59168;BME280;44948;55.046;73.266;2023-03-26T07:25:51;99721.34;;;8.79;55.88
59168;BME280;44948;55.046;73.266;2023-03-26T07:29:19;99714.03;;;8.72;56.28
59168;BME280;44948;55.046;73.266;2023-03-26T07:32:48;99710.47;;;8.73;56.69
59168;BME280;44948;55.046;73.266;2023-03-26T07:40:03;99699.50;;;8.68;56.84
59168;BME280;44948;55.046;73.266;2023-03-26T07:47:20;99711.72;;;8.80;56.94
59168;BME280;44948;55.046;73.266;2023-03-26T07:50:46;99697.47;;;8.84;56.94
59168;BME280;44948;55.046;73.266;2023-03-26T07:54:04;99693.53;;;8.78;56.84
59168;BME280;44948;55.046;73.266;2023-03-26T07:58:21;99683.63;;;8.94;56.74
59168;BME280;44948;55.046;73.266;2023-03-26T08:05:42;99685.41;;;8.94;56.91
59168;BME280;44948;55.046;73.266;2023-03-26T08:16:55;99683.56;;;8.59;57.64
59168;BME280;44948;55.046;73.266;2023-03-26T08:20:30;99696.03;;;8.80;56.84
59168;BME280;44948;55.046;73.266;2023-03-26T08:23:57;99690.56;;;8.83;56.87
59168;BME280;44948;55.046;73.266;2023-03-26T08:27:24;99694.44;;;8.53;56.65
59168;BME280;44948;55.046;73.266;2023-03-26T08:30:35;99696.16;;;8.42;56.96
59168;BME280;44948;55.046;73.266;2023-03-26T08:33:37;99698.44;;;8.46;57.54
59168;BME280;44948;55.046;73.266;2023-03-26T08:36:46;99696.34;;;8.39;56.92
59168;BME280;44948;55.046;73.266;2023-03-26T08:39:51;99702.88;;;8.33;57.34
59168;BME280;44948;55.046;73.266;2023-03-26T08:56:16;99717.97;;;7.79;58.09
59168;BME280;44948;55.046;73.266;2023-03-26T09:06:19;99709.38;;;7.51;58.76
59168;BME280;44948;55.046;73.266;2023-03-26T09:13:33;99705.09;;;6.83;60.29
59168;BME280;44948;55.046;73.266;2023-03-26T09:35:32;99701.88;;;6.39;61.96
59168;BME280;44948;55.046;73.266;2023-03-26T09:38:49;99700.19;;;6.38;63.00
59168;BME280;44948;55.046;73.266;2023-03-26T09:42:30;99689.91;;;6.22;63.06
59168;BME280;44948;55.046;73.266;2023-03-26T09:49:10;99677.13;;;5.76;64.53
59168;BME280;44948;55.046;73.266;2023-03-26T09:59:10;99704.53;;;5.96;64.40
59168;BME280;44948;55.046;73.266;2023-03-26T10:09:27;99711.94;;;5.88;64.30
59168;BME280;44948;55.046;73.266;2023-03-26T10:19:04;99721.44;;;5.75;64.84
59168;BME280;44948;55.046;73.266;2023-03-26T10:22:42;99724.03;;;5.60;64.76
59168;BME280;44948;55.046;73.266;2023-03-26T10:37:03;99737.91;;;5.45;65.65
59168;BME280;44948;55.046;73.266;2023-03-26T10:40:19;99741.03;;;5.36;65.57
59168;BME280;44948;55.046;73.266;2023-03-26T10:58:27;99742.09;;;5.18;66.22
59168;BME280;44948;55.046;73.266;2023-03-26T11:01:10;99738.94;;;5.13;66.64
59168;BME280;44948;55.046;73.266;2023-03-26T11:08:05;99734.38;;;5.16;66.45
59168;BME280;44948;55.046;73.266;2023-03-26T11:12:18;99737.81;;;5.17;66.71
59168;BME280;44948;55.046;73.266;2023-03-26T11:18:25;99750.66;;;5.04;67.53
59168;BME280;44948;55.046;73.266;2023-03-26T11:31:18;99741.16;;;5.19;67.18
59168;BME280;44948;55.046;73.266;2023-03-26T11:34:36;99736.56;;;5.24;66.79
59168;BME280;44948;55.046;73.266;2023-03-26T11:37:47;99741.97;;;5.35;67.17
59168;BME280;44948;55.046;73.266;2023-03-26T11:40:53;99734.56;;;5.43;66.59
59168;BME280;44948;55.046;73.266;2023-03-26T11:44:39;99735.47;;;5.28;66.52
59168;BME280;44948;55.046;73.266;2023-03-26T11:51:24;99726.13;;;5.40;66.44
59168;BME280;44948;55.046;73.266;2023-03-26T11:54:28;99733.47;;;5.47;66.38
59168;BME280;44948;55.046;73.266;2023-03-26T11:57:35;99740.06;;;5.39;66.15
59168;BME280;44948;55.046;73.266;2023-03-26T12:00:42;99737.88;;;5.31;66.41
59168;BME280;44948;55.046;73.266;2023-03-26T12:04:03;99742.72;;;5.37;66.68
59168;BME280;44948;55.046;73.266;2023-03-26T12:07:30;99750.13;;;5.29;66.50
59168;BME280;44948;55.046;73.266;2023-03-26T12:10:40;99719.28;;;5.23;67.18
59168;BME280;44948;55.046;73.266;2023-03-26T12:14:00;99741.75;;;5.24;66.58
59168;BME280;44948;55.046;73.266;2023-03-26T12:17:07;99731.38;;;5.24;67.37
59168;BME280;44948;55.046;73.266;2023-03-26T12:23:41;99733.84;;;5.41;66.68
59168;BME280;44948;55.046;73.266;2023-03-26T12:30:26;99738.47;;;5.20;67.07
59168;BME280;44948;55.046;73.266;2023-03-26T12:33:31;99735.59;;;5.11;67.58
59168;BME280;44948;55.046;73.266;2023-03-26T12:36:52;99739.94;;;5.10;67.53
59168;BME280;44948;55.046;73.266;2023-03-26T12:40:07;99739.88;;;4.96;67.53
59168;BME280;44948;55.046;73.266;2023-03-26T12:43:24;99743.28;;;4.81;67.75
59168;BME280;44948;55.046;73.266;2023-03-26T12:46:33;99748.94;;;4.73;68.13
59168;BME280;44948;55.046;73.266;2023-03-26T12:49:48;99744.66;;;4.72;68.30
59168;BME280;44948;55.046;73.266;2023-03-26T12:56:57;99753.50;;;4.36;68.69
59168;BME280;44948;55.046;73.266;2023-03-26T13:07:14;99753.03;;;3.79;70.89
59168;BME280;44948;55.046;73.266;2023-03-26T13:10:36;99759.91;;;3.63;71.67
59168;BME280;44948;55.046;73.266;2023-03-26T13:17:46;99771.50;;;3.21;72.53
59168;BME280;44948;55.046;73.266;2023-03-26T13:21:24;99772.63;;;3.16;72.74
59168;BME280;44948;55.046;73.266;2023-03-26T13:24:52;99775.59;;;3.08;72.76
59168;BME280;44948;55.046;73.266;2023-03-26T13:28:18;99776.16;;;2.96;73.28
59168;BME280;44948;55.046;73.266;2023-03-26T13:35:18;99778.84;;;2.76;74.00
59168;BME280;44948;55.046;73.266;2023-03-26T13:45:45;99799.28;;;2.44;75.53
59168;BME280;44948;55.046;73.266;2023-03-26T13:48:59;99792.97;;;2.50;75.33
59168;BME280;44948;55.046;73.266;2023-03-26T13:52:10;99790.53;;;2.47;75.39
59168;BME280;44948;55.046;73.266;2023-03-26T13:58:40;99789.84;;;2.43;75.53
59168;BME280;44948;55.046;73.266;2023-03-26T14:01:53;99790.06;;;2.39;75.87
59168;BME280;44948;55.046;73.266;2023-03-26T14:05:04;99789.91;;;2.42;75.91
59168;BME280;44948;55.046;73.266;2023-03-26T14:11:31;99782.47;;;2.34;75.92
59168;BME280;44948;55.046;73.266;2023-03-26T14:14:47;99797.75;;;2.40;75.84
59168;BME280;44948;55.046;73.266;2023-03-26T14:21:34;99799.28;;;2.25;76.15
59168;BME280;44948;55.046;73.266;2023-03-26T14:25:06;99798.13;;;2.12;76.17
59168;BME280;44948;55.046;73.266;2023-03-26T14:32:11;99812.41;;;2.00;76.71
59168;BME280;44948;55.046;73.266;2023-03-26T14:41:57;99811.25;;;1.67;77.87
59168;BME280;44948;55.046;73.266;2023-03-26T14:49:22;99828.22;;;1.74;77.81
59168;BME280;44948;55.046;73.266;2023-03-26T14:52:45;99824.97;;;1.69;78.47
59168;BME280;44948;55.046;73.266;2023-03-26T15:06:32;99807.91;;;1.65;78.54
59168;BME280;44948;55.046;73.266;2023-03-26T15:24:19;99812.75;;;1.30;79.98
59168;BME280;44948;55.046;73.266;2023-03-26T15:27:44;99825.09;;;1.02;80.36
59168;BME280;44948;55.046;73.266;2023-03-26T15:31:26;99824.78;;;1.09;80.56
59168;BME280;44948;55.046;73.266;2023-03-26T15:52:19;99804.97;;;1.10;81.25
59168;BME280;44948;55.046;73.266;2023-03-26T15:55:35;99808.56;;;1.06;80.97
59168;BME280;44948;55.046;73.266;2023-03-26T16:02:15;99819.69;;;1.08;80.97
59168;BME280;44948;55.046;73.266;2023-03-26T16:05:36;99804.97;;;1.10;81.05
59168;BME280;44948;55.046;73.266;2023-03-26T16:15:31;99806.13;;;1.03;81.15
59168;BME280;44948;55.046;73.266;2023-03-26T16:18:52;99795.47;;;1.10;80.79
59168;BME280;44948;55.046;73.266;2023-03-26T16:22:00;99802.19;;;1.15;81.11
59168;BME280;44948;55.046;73.266;2023-03-26T16:25:25;99815.41;;;1.07;81.09
59168;BME280;44948;55.046;73.266;2023-03-26T16:28:32;99808.44;;;1.09;81.53
59168;BME280;44948;55.046;73.266;2023-03-26T16:35:21;99801.59;;;1.08;82.09
59168;BME280;44948;55.046;73.266;2023-03-26T16:38:25;99814.34;;;1.13;81.87
59168;BME280;44948;55.046;73.266;2023-03-26T16:41:32;99809.78;;;1.19;82.02
59168;BME280;44948;55.046;73.266;2023-03-26T16:54:56;99795.84;;;1.23;81.95
59168;BME280;44948;55.046;73.266;2023-03-26T17:01:34;99806.16;;;1.23;82.13
59168;BME280;44948;55.046;73.266;2023-03-26T17:05:12;99803.31;;;1.29;82.23
59168;BME280;44948;55.046;73.266;2023-03-26T17:11:44;99810.84;;;1.35;81.93
59168;BME280;44948;55.046;73.266;2023-03-26T17:15:05;99801.69;;;1.49;81.35
59168;BME280;44948;55.046;73.266;2023-03-26T17:18:31;99793.91;;;1.49;81.65
59168;BME280;44948;55.046;73.266;2023-03-26T17:28:58;99789.94;;;1.62;80.92
59168;BME280;44948;55.046;73.266;2023-03-26T17:32:15;99794.13;;;1.64;81.13
59168;BME280;44948;55.046;73.266;2023-03-26T17:45:19;99800.59;;;1.75;81.22
59168;BME280;44948;55.046;73.266;2023-03-26T17:48:30;99783.22;;;1.78;80.91
59168;BME280;44948;55.046;73.266;2023-03-26T17:51:57;99798.78;;;1.77;80.98
59168;BME280;44948;55.046;73.266;2023-03-26T17:55:08;99795.16;;;1.81;81.08
59168;BME280;44948;55.046;73.266;2023-03-26T17:58:36;99795.22;;;1.79;80.78
59168;BME280;44948;55.046;73.266;2023-03-26T18:02:06;99802.56;;;1.90;80.85
59168;BME280;44948;55.046;73.266;2023-03-26T18:05:16;99807.00;;;1.86;81.05
59168;BME280;44948;55.046;73.266;2023-03-26T18:15:22;99819.03;;;1.87;80.77
59168;BME280;44948;55.046;73.266;2023-03-26T18:19:01;99819.16;;;1.84;80.44
59168;BME280;44948;55.046;73.266;2023-03-26T18:22:17;99824.31;;;1.84;81.31
59168;BME280;44948;55.046;73.266;2023-03-26T18:25:27;99818.84;;;1.92;80.75
59168;BME280;44948;55.046;73.266;2023-03-26T18:28:40;99831.50;;;1.98;80.76
59168;BME280;44948;55.046;73.266;2023-03-26T18:31:43;99834.09;;;1.98;80.71
59168;BME280;44948;55.046;73.266;2023-03-26T18:34:53;99828.22;;;1.94;80.56
59168;BME280;44948;55.046;73.266;2023-03-26T18:37:59;99835.00;;;1.97;80.75
59168;BME280;44948;55.046;73.266;2023-03-26T18:41:06;99819.75;;;1.91;80.80
59168;BME280;44948;55.046;73.266;2023-03-26T18:44:17;99834.16;;;1.96;81.29
59168;BME280;44948;55.046;73.266;2023-03-26T18:47:20;99835.13;;;1.94;81.65
59168;BME280;44948;55.046;73.266;2023-03-26T18:50:33;99839.72;;;1.87;81.60
59168;BME280;44948;55.046;73.266;2023-03-26T18:53:51;99839.13;;;1.81;81.94
59168;BME280;44948;55.046;73.266;2023-03-26T18:56:55;99838.16;;;1.83;82.25
59168;BME280;44948;55.046;73.266;2023-03-26T19:00:20;99842.69;;;1.78;82.06
59168;BME280;44948;55.046;73.266;2023-03-26T19:03:24;99833.88;;;1.82;82.21
59168;BME280;44948;55.046;73.266;2023-03-26T19:06:28;99829.88;;;1.75;82.60
59168;BME280;44948;55.046;73.266;2023-03-26T19:09:32;99840.75;;;1.83;82.50
59168;BME280;44948;55.046;73.266;2023-03-26T19:12:35;99826.53;;;1.73;82.39
59168;BME280;44948;55.046;73.266;2023-03-26T19:15:41;99838.28;;;1.80;82.26
59168;BME280;44948;55.046;73.266;2023-03-26T19:18:46;99829.31;;;1.89;82.17
59168;BME280;44948;55.046;73.266;2023-03-26T19:21:49;99832.03;;;1.86;82.26
59168;BME280;44948;55.046;73.266;2023-03-26T19:24:56;99844.91;;;1.87;81.79
59168;BME280;44948;55.046;73.266;2023-03-26T19:28:00;99833.25;;;1.77;82.11
59168;BME280;44948;55.046;73.266;2023-03-26T19:34:32;99838.41;;;1.77;81.67
59168;BME280;44948;55.046;73.266;2023-03-26T19:37:49;99842.03;;;1.73;82.35
59168;BME280;44948;55.046;73.266;2023-03-26T19:40:56;99847.22;;;1.73;82.14
59168;BME280;44948;55.046;73.266;2023-03-26T19:44:00;99853.44;;;1.67;82.51
59168;BME280;44948;55.046;73.266;2023-03-26T19:50:25;99850.94;;;1.66;82.49
59168;BME280;44948;55.046;73.266;2023-03-26T19:53:35;99851.06;;;1.63;82.12
59168;BME280;44948;55.046;73.266;2023-03-26T19:56:38;99856.94;;;1.66;82.44
59168;BME280;44948;55.046;73.266;2023-03-26T19:59:40;99857.00;;;1.65;82.19
59168;BME280;44948;55.046;73.266;2023-03-26T20:02:49;99856.09;;;1.66;82.55
59168;BME280;44948;55.046;73.266;2023-03-26T20:05:52;99857.91;;;1.64;82.66
59168;BME280;44948;55.046;73.266;2023-03-26T20:08:56;99850.16;;;1.64;82.72
59168;BME280;44948;55.046;73.266;2023-03-26T20:12:11;99845.75;;;1.66;82.55
59168;BME280;44948;55.046;73.266;2023-03-26T20:15:26;99829.47;;;1.44;82.53
59168;BME280;44948;55.046;73.266;2023-03-26T20:18:29;99856.38;;;1.60;82.55
59168;BME280;44948;55.046;73.266;2023-03-26T20:21:32;99859.84;;;1.59;82.47
59168;BME280;44948;55.046;73.266;2023-03-26T20:24:40;99866.69;;;1.60;82.57
59168;BME280;44948;55.046;73.266;2023-03-26T20:27:43;99860.75;;;1.58;82.43
59168;BME280;44948;55.046;73.266;2023-03-26T20:30:55;99864.31;;;1.55;82.88
59168;BME280;44948;55.046;73.266;2023-03-26T20:34:21;99861.88;;;1.51;82.88
59168;BME280;44948;55.046;73.266;2023-03-26T20:37:34;99856.78;;;1.49;82.77
59168;BME280;44948;55.046;73.266;2023-03-26T20:40:38;99869.59;;;1.52;83.10
59168;BME280;44948;55.046;73.266;2023-03-26T20:43:41;99862.84;;;1.48;82.97
59168;BME280;44948;55.046;73.266;2023-03-26T20:46:49;99873.06;;;1.51;83.08
59168;BME280;44948;55.046;73.266;2023-03-26T20:50:01;99867.31;;;1.45;83.25
59168;BME280;44948;55.046;73.266;2023-03-26T20:53:03;99864.66;;;1.46;83.33
59168;BME280;44948;55.046;73.266;2023-03-26T20:56:19;99870.94;;;1.40;83.19
59168;BME280;44948;55.046;73.266;2023-03-26T20:59:26;99869.97;;;1.43;83.34
59168;BME280;44948;55.046;73.266;2023-03-26T21:02:28;99880.09;;;1.48;82.97
59168;BME280;44948;55.046;73.266;2023-03-26T21:05:31;99880.94;;;1.48;83.12
59168;BME280;44948;55.046;73.266;2023-03-26T21:08:37;99881.78;;;1.49;82.62
59168;BME280;44948;55.046;73.266;2023-03-26T21:14:44;99881.00;;;1.47;83.25
59168;BME280;44948;55.046;73.266;2023-03-26T21:17:48;99876.09;;;1.40;83.08
59168;BME280;44948;55.046;73.266;2023-03-26T21:21:25;99874.47;;;1.38;82.88
59168;BME280;44948;55.046;73.266;2023-03-26T21:28:37;99889.41;;;1.08;83.76
59168;BME280;44948;55.046;73.266;2023-03-26T21:31:43;99888.72;;;1.26;83.80
59168;BME280;44948;55.046;73.266;2023-03-26T21:34:57;99881.69;;;1.30;83.46
59168;BME280;44948;55.046;73.266;2023-03-26T21:38:02;99891.72;;;1.37;83.59
59168;BME280;44948;55.046;73.266;2023-03-26T21:41:05;99880.78;;;1.31;83.84
59168;BME280;44948;55.046;73.266;2023-03-26T21:44:08;99885.94;;;1.31;83.62
59168;BME280;44948;55.046;73.266;2023-03-26T21:47:11;99890.38;;;1.27;83.93
59168;BME280;44948;55.046;73.266;2023-03-26T21:50:16;99912.75;;;1.28;84.03
59168;BME280;44948;55.046;73.266;2023-03-26T21:53:23;99914.66;;;1.23;83.91
59168;BME280;44948;55.046;73.266;2023-03-26T22:06:47;99909.00;;;1.14;84.19
59168;BME280;44948;55.046;73.266;2023-03-26T22:09:53;99924.09;;;1.24;84.22
59168;BME280;44948;55.046;73.266;2023-03-26T22:12:56;99925.00;;;1.23;84.39
59168;BME280;44948;55.046;73.266;2023-03-26T22:15:59;99913.88;;;1.21;84.00
59168;BME280;44948;55.046;73.266;2023-03-26T22:19:01;99925.19;;;1.19;84.36
59168;BME280;44948;55.046;73.266;2023-03-26T22:22:06;99925.19;;;1.19;84.53